createdAt,value
2023-05-09T00:00:15.371Z,42.50
2023-05-09T00:03:20.870Z,42.49
2023-05-09T00:06:26.196Z,42.53
2023-05-09T00:09:31.761Z,42.88
2023-05-09T00:12:37.580Z,42.71
2023-05-09T00:15:43.587Z,42.56
2023-05-09T00:18:43.902Z,42.67
2023-05-09T00:21:30.611Z,42.76
2023-05-09T00:24:22.590Z,42.84
2023-05-09T00:27:15.334Z,42.85
2023-05-09T00:30:36.476Z,43.13
2023-05-09T00:33:42.648Z,43.13
2023-05-09T00:36:49.247Z,43.13
2023-05-09T00:39:54.806Z,43.08
2023-05-09T00:43:00.414Z,43.16
2023-05-09T00:46:06.231Z,43.22
2023-05-09T00:49:12.071Z,42.90
2023-05-09T00:52:17.964Z,43.00
2023-05-09T00:55:23.764Z,43.26
2023-05-09T00:58:29.703Z,43.09
2023-05-09T01:01:34.892Z,43.09
2023-05-09T01:04:42.357Z,43.00
2023-05-09T01:08:05.841Z,43.07
2023-05-09T01:11:21.676Z,43.30
2023-05-09T01:14:49.197Z,43.33
2023-05-09T01:18:15.726Z,43.53
2023-05-09T01:21:24.482Z,43.88
2023-05-09T01:25:12.204Z,43.65
2023-05-09T01:28:38.625Z,43.58
2023-05-09T01:31:43.813Z,43.71
2023-05-09T01:34:50.829Z,43.78
2023-05-09T01:37:58.413Z,44.03
2023-05-09T01:41:07.046Z,43.99
2023-05-09T01:44:12.182Z,44.11
2023-05-09T01:47:18.464Z,43.90
2023-05-09T01:50:26.023Z,44.25
2023-05-09T01:53:30.890Z,44.22
2023-05-09T01:56:36.327Z,44.05
2023-05-09T01:59:35.817Z,44.02
2023-05-09T02:02:22.093Z,44.12
2023-05-09T02:05:18.200Z,44.28
2023-05-09T02:08:05.125Z,44.67
2023-05-09T02:10:58.525Z,44.95
2023-05-09T02:13:43.578Z,44.88
2023-05-09T02:16:37.243Z,44.90
2023-05-09T02:19:23.990Z,45.15
2023-05-09T02:22:17.267Z,45.26
2023-05-09T02:25:12.007Z,45.28
2023-05-09T02:28:17.369Z,45.31
2023-05-09T02:31:23.701Z,45.59
2023-05-09T02:34:30.154Z,45.62
2023-05-09T02:37:35.587Z,45.99
2023-05-09T02:40:42.001Z,46.17
2023-05-09T02:43:49.021Z,46.28
2023-05-09T02:46:55.368Z,46.50
2023-05-09T02:50:01.028Z,46.86
2023-05-09T02:53:06.536Z,46.63
2023-05-09T02:56:13.238Z,46.68
2023-05-09T02:59:19.335Z,46.50
2023-05-09T03:02:25.060Z,47.02
2023-05-09T03:05:30.008Z,46.91
2023-05-09T03:08:35.974Z,46.92
2023-05-09T03:11:43.636Z,46.91
2023-05-09T03:14:49.411Z,47.10
2023-05-09T03:17:55.861Z,47.25
2023-05-09T03:21:01.807Z,47.32
2023-05-09T03:24:07.513Z,47.30
2023-05-09T03:27:13.327Z,47.56
2023-05-09T03:30:20.265Z,47.49
2023-05-09T03:33:25.981Z,47.38
2023-05-09T03:36:32.388Z,47.35
2023-05-09T03:39:38.412Z,46.99
2023-05-09T03:42:36.836Z,46.63
2023-05-09T03:45:36.360Z,46.56
2023-05-09T03:48:43.139Z,46.73
2023-05-09T03:51:48.794Z,46.48
2023-05-09T03:54:54.927Z,46.06
2023-05-09T03:58:02.663Z,46.03
2023-05-09T04:01:08.916Z,46.69
2023-05-09T04:04:14.763Z,46.17
2023-05-09T04:07:20.594Z,46.09
2023-05-09T04:10:26.503Z,46.06
2023-05-09T04:13:35.397Z,46.18
2023-05-09T04:16:43.441Z,46.16
2023-05-09T04:19:48.364Z,46.57
2023-05-09T04:22:55.179Z,46.32
2023-05-09T04:26:03.543Z,46.67
2023-05-09T04:29:09.316Z,46.82
2023-05-09T04:32:17.086Z,47.04
2023-05-09T04:35:23.583Z,47.05
2023-05-09T04:38:28.700Z,47.60
2023-05-09T04:41:36.861Z,47.49
2023-05-09T04:44:43.239Z,47.56
2023-05-09T04:47:47.893Z,47.92
2023-05-09T04:50:55.090Z,48.42
2023-05-09T04:54:01.628Z,48.73
2023-05-09T04:57:17.287Z,49.27
2023-05-09T05:00:17.740Z,48.87
2023-05-09T05:03:25.433Z,49.64
2023-05-09T05:06:31.277Z,49.12
2023-05-09T05:09:37.271Z,49.18
2023-05-09T05:12:44.499Z,49.65
2023-05-09T05:15:51.401Z,50.02
2023-05-09T05:18:57.220Z,49.55
2023-05-09T05:22:06.806Z,49.82
2023-05-09T05:25:05.599Z,49.31
2023-05-09T05:28:11.703Z,48.98
2023-05-09T05:31:17.393Z,49.78
2023-05-09T05:34:26.554Z,49.63
2023-05-09T05:37:33.145Z,49.88
2023-05-09T05:40:38.655Z,50.22
2023-05-09T05:43:45.154Z,48.31
2023-05-09T05:46:51.078Z,47.82
2023-05-09T05:49:58.920Z,48.82
2023-05-09T05:53:05.826Z,48.86
2023-05-09T05:56:11.225Z,49.06
2023-05-09T05:59:17.774Z,48.48
2023-05-09T06:02:24.061Z,47.29
2023-05-09T06:05:30.089Z,47.53
2023-05-09T06:08:36.651Z,46.56
2023-05-09T06:11:42.304Z,46.93
2023-05-09T06:14:47.822Z,46.84
2023-05-09T06:17:47.640Z,47.46
2023-05-09T06:20:43.032Z,46.78
2023-05-09T06:24:05.866Z,46.22
2023-05-09T06:26:54.570Z,46.71
2023-05-09T06:30:01.406Z,46.67
2023-05-09T06:33:07.899Z,46.24
2023-05-09T06:36:14.407Z,46.08
2023-05-09T06:39:19.324Z,46.02
2023-05-09T06:42:26.585Z,45.93
2023-05-09T06:45:32.462Z,45.25
2023-05-09T06:48:30.930Z,45.33
2023-05-09T06:51:23.921Z,44.69
2023-05-09T06:54:29.367Z,44.66
2023-05-09T06:57:35.269Z,43.88
2023-05-09T07:00:33.996Z,44.28
2023-05-09T07:03:39.526Z,44.46
2023-05-09T07:06:44.843Z,44.98
2023-05-09T07:09:52.891Z,44.84
2023-05-09T07:12:58.049Z,43.64
2023-05-09T07:16:06.408Z,43.64
2023-05-09T07:19:14.248Z,43.33
2023-05-09T07:22:20.657Z,43.62
2023-05-09T07:25:25.900Z,43.00
2023-05-09T07:28:32.341Z,42.96
2023-05-09T07:31:38.254Z,42.77
2023-05-09T07:34:43.981Z,42.81
2023-05-09T07:37:49.506Z,43.05
2023-05-09T07:40:56.085Z,43.25
2023-05-09T07:44:02.836Z,42.81
2023-05-09T07:47:09.839Z,42.38
2023-05-09T07:50:16.560Z,41.79
2023-05-09T07:53:22.366Z,40.95
2023-05-09T07:56:28.237Z,40.70
2023-05-09T07:59:33.674Z,40.05
2023-05-09T08:02:38.912Z,39.58
2023-05-09T08:05:45.652Z,38.78
2023-05-09T08:08:52.280Z,39.34
2023-05-09T08:11:58.667Z,38.91
2023-05-09T08:15:04.486Z,38.09
2023-05-09T08:18:10.896Z,37.59
2023-05-09T08:21:16.909Z,36.62
2023-05-09T08:24:25.355Z,35.77
2023-05-09T08:27:32.403Z,36.13
2023-05-09T08:30:38.373Z,36.88
2023-05-09T08:33:43.564Z,36.60
2023-05-09T08:36:48.547Z,36.23
2023-05-09T08:39:55.718Z,35.21
2023-05-09T08:43:01.648Z,34.58
2023-05-09T08:46:09.666Z,35.01
2023-05-09T08:49:16.108Z,35.92
2023-05-09T08:52:15.716Z,36.13
2023-05-09T08:55:20.434Z,36.95
2023-05-09T08:58:26.896Z,37.70
2023-05-09T09:01:36.522Z,37.50
2023-05-09T09:04:42.096Z,40.16
2023-05-09T09:07:51.424Z,39.71
2023-05-09T09:10:57.224Z,39.67
2023-05-09T09:14:02.995Z,40.14
2023-05-09T09:17:09.993Z,40.66
2023-05-09T09:20:17.771Z,40.61
2023-05-09T09:23:24.204Z,40.36
2023-05-09T09:26:29.550Z,41.51
2023-05-09T09:29:36.038Z,41.75
2023-05-09T09:32:49.463Z,41.36
2023-05-09T09:35:55.881Z,40.41
2023-05-09T09:39:01.672Z,40.42
2023-05-09T09:42:08.442Z,39.72
2023-05-09T09:45:23.746Z,40.16
2023-05-09T09:48:22.622Z,38.29
2023-05-09T09:51:25.020Z,36.61
2023-05-09T09:54:30.433Z,36.92
2023-05-09T09:57:55.003Z,36.15
2023-05-09T10:00:59.893Z,35.66
2023-05-09T10:04:05.427Z,35.95
2023-05-09T10:07:15.069Z,35.17
2023-05-09T10:10:21.741Z,35.39
2023-05-09T10:13:27.256Z,35.45
2023-05-09T10:16:43.717Z,35.35
2023-05-09T10:19:40.395Z,35.46
2023-05-09T10:22:51.320Z,36.34
2023-05-09T10:26:03.023Z,35.00
2023-05-09T10:29:10.679Z,34.50
2023-05-09T10:32:20.323Z,33.00
2023-05-09T10:35:26.390Z,32.51
2023-05-09T10:38:45.636Z,32.51
2023-05-09T10:41:52.286Z,31.93
2023-05-09T10:44:58.461Z,31.76
2023-05-09T10:48:05.424Z,32.20
2023-05-09T10:51:05.448Z,32.60
2023-05-09T10:54:11.427Z,32.33
2023-05-09T10:57:17.281Z,32.99
2023-05-09T11:00:23.389Z,32.04
2023-05-09T11:03:28.309Z,32.51
2023-05-09T11:06:59.126Z,31.80
2023-05-09T11:10:24.391Z,33.35
2023-05-09T11:13:31.274Z,32.06
2023-05-09T11:16:37.739Z,31.93
2023-05-09T11:19:53.700Z,32.13
2023-05-09T11:22:59.558Z,32.63
2023-05-09T11:26:04.709Z,32.50
2023-05-09T11:29:10.430Z,32.72
2023-05-09T11:32:22.865Z,31.61
2023-05-09T11:35:34.882Z,33.07
2023-05-09T11:38:40.246Z,32.80
2023-05-09T11:41:46.680Z,32.87
2023-05-09T11:44:56.046Z,32.54
2023-05-09T11:48:04.406Z,33.18
2023-05-09T11:51:12.749Z,33.41
2023-05-09T11:54:21.529Z,34.24
2023-05-09T11:57:26.610Z,33.45
2023-05-09T12:00:33.404Z,33.14
2023-05-09T12:03:38.448Z,33.26
2023-05-09T12:06:37.917Z,33.48
2023-05-09T12:09:50.783Z,33.88
2023-05-09T12:13:03.469Z,34.15
2023-05-09T12:16:15.736Z,34.19
2023-05-09T12:19:22.339Z,34.05
2023-05-09T12:22:29.541Z,33.62
2023-05-09T12:25:30.224Z,34.23
2023-05-09T12:28:38.356Z,33.78
2023-05-09T12:31:44.448Z,33.57
2023-05-09T12:34:55.124Z,33.67
2023-05-09T12:38:12.825Z,33.56
2023-05-09T12:41:35.096Z,33.97
2023-05-09T12:44:39.087Z,33.77
2023-05-09T12:47:47.007Z,33.31
2023-05-09T12:50:46.095Z,33.06
2023-05-09T12:53:55.252Z,34.68
2023-05-09T12:57:02.289Z,35.27
2023-05-09T13:00:11.107Z,35.06
2023-05-09T13:03:17.112Z,34.65
2023-05-09T13:06:28.242Z,35.11
2023-05-09T13:09:26.907Z,34.83
2023-05-09T13:12:21.036Z,34.32
2023-05-09T13:15:28.092Z,34.50
2023-05-09T13:18:34.389Z,34.31
2023-05-09T13:21:39.943Z,34.59
2023-05-09T13:24:46.125Z,34.88
2023-05-09T13:27:52.666Z,34.89
2023-05-09T13:30:58.475Z,35.20
2023-05-09T13:34:04.318Z,34.23
2023-05-09T13:37:10.625Z,33.98
2023-05-09T13:40:16.275Z,33.88
2023-05-09T13:43:22.845Z,33.75
2023-05-09T13:46:28.376Z,33.63
2023-05-09T13:49:35.260Z,33.98
2023-05-09T13:52:40.632Z,34.28
2023-05-09T13:55:46.725Z,33.77
2023-05-09T13:58:55.396Z,33.74
2023-05-09T14:02:00.386Z,33.29
2023-05-09T14:05:08.989Z,33.42
2023-05-09T14:08:14.364Z,32.83
2023-05-09T14:11:20.185Z,33.10
2023-05-09T14:14:26.616Z,33.18
2023-05-09T14:17:32.310Z,32.98
2023-05-09T14:20:39.281Z,33.70
2023-05-09T14:23:45.580Z,33.08
2023-05-09T14:26:52.136Z,33.14
2023-05-09T14:29:57.812Z,33.70
2023-05-09T14:33:04.614Z,35.30
2023-05-09T14:36:13.120Z,35.07
2023-05-09T14:39:19.936Z,35.82
2023-05-09T14:42:20.046Z,35.36
2023-05-09T14:45:26.207Z,35.48
2023-05-09T14:48:32.162Z,35.80
2023-05-09T14:51:38.466Z,35.98
2023-05-09T14:54:44.134Z,35.71
2023-05-09T14:57:49.861Z,36.01
2023-05-09T15:00:50.293Z,36.50
2023-05-09T15:03:55.991Z,36.53
2023-05-09T15:07:03.103Z,36.56
2023-05-09T15:10:10.593Z,36.91
2023-05-09T15:13:17.228Z,37.47
2023-05-09T15:16:23.508Z,37.89
2023-05-09T15:19:29.214Z,37.28
2023-05-09T15:22:34.450Z,37.55
2023-05-09T15:25:39.240Z,37.19
2023-05-09T15:28:44.011Z,37.67
2023-05-09T15:31:50.622Z,37.76
2023-05-09T15:34:55.960Z,37.30
2023-05-09T15:38:01.955Z,38.02
2023-05-09T15:41:07.656Z,38.70
2023-05-09T15:44:14.218Z,39.33
2023-05-09T15:47:19.718Z,39.07
2023-05-09T15:50:19.469Z,39.14
2023-05-09T15:53:12.298Z,38.89
2023-05-09T15:56:16.861Z,39.87
2023-05-09T15:59:22.529Z,40.53
2023-05-09T16:02:29.004Z,41.31
2023-05-09T16:05:34.884Z,41.46
2023-05-09T16:08:41.476Z,41.80
2023-05-09T16:11:48.200Z,42.04
2023-05-09T16:14:47.026Z,41.75
2023-05-09T16:17:39.122Z,41.98
2023-05-09T16:20:44.798Z,42.12
2023-05-09T16:23:50.771Z,42.19
2023-05-09T16:26:58.463Z,42.28
2023-05-09T16:30:04.371Z,42.55
2023-05-09T16:33:10.553Z,41.42
2023-05-09T16:36:16.167Z,41.74
2023-05-09T16:39:21.861Z,41.46
2023-05-09T16:42:27.239Z,40.91
2023-05-09T16:45:32.498Z,40.04
2023-05-09T16:48:38.495Z,39.56
2023-05-09T16:51:44.331Z,39.93
2023-05-09T16:54:50.173Z,39.96
2023-05-09T16:57:56.137Z,39.94
2023-05-09T17:01:01.831Z,40.42
2023-05-09T17:04:08.700Z,40.70
2023-05-09T17:07:14.198Z,40.57
2023-05-09T17:10:19.404Z,40.51
2023-05-09T17:13:25.553Z,40.75
2023-05-09T17:16:32.448Z,40.59
2023-05-09T17:19:39.156Z,40.27
2023-05-09T17:22:44.648Z,40.59
2023-05-09T17:25:49.916Z,40.74
2023-05-09T17:28:56.844Z,40.54
2023-05-09T17:32:05.106Z,40.59
2023-05-09T17:35:11.788Z,41.32
2023-05-09T17:38:17.649Z,41.14
2023-05-09T17:41:23.132Z,41.55
2023-05-09T17:44:29.635Z,41.59
2023-05-09T17:47:36.240Z,41.70
2023-05-09T17:50:42.413Z,41.76
2023-05-09T17:53:48.286Z,41.87
2023-05-09T17:56:56.679Z,41.52
2023-05-09T18:00:01.494Z,42.11
2023-05-09T18:03:08.289Z,41.73
2023-05-09T18:06:15.002Z,41.12
2023-05-09T18:09:20.769Z,42.32
2023-05-09T18:12:26.524Z,42.75
2023-05-09T18:15:33.631Z,43.14
2023-05-09T18:18:39.275Z,43.50
2023-05-09T18:21:45.218Z,43.30
2023-05-09T18:24:51.883Z,43.21
2023-05-09T18:27:58.913Z,42.71
2023-05-09T18:31:06.914Z,42.84
2023-05-09T18:34:13.476Z,42.39
2023-05-09T18:37:19.171Z,42.38
2023-05-09T18:40:25.027Z,41.96
2023-05-09T18:43:30.859Z,41.16
2023-05-09T18:46:37.589Z,40.51
2023-05-09T18:49:44.953Z,39.65
2023-05-09T18:52:52.733Z,39.18
2023-05-09T18:55:52.565Z,39.64
2023-05-09T18:58:58.865Z,40.18
2023-05-09T19:02:05.075Z,39.99
2023-05-09T19:05:13.078Z,40.14
2023-05-09T19:08:18.875Z,40.61
2023-05-09T19:11:24.777Z,40.53
2023-05-09T19:14:30.887Z,40.72
2023-05-09T19:17:37.385Z,40.58
2023-05-09T19:20:39.530Z,40.72
2023-05-09T19:23:34.196Z,40.94
2023-05-09T19:26:32.873Z,41.16
2023-05-09T19:29:39.218Z,41.48
2023-05-09T19:32:45.977Z,42.19
2023-05-09T19:35:51.772Z,42.31
2023-05-09T19:38:57.902Z,43.34
2023-05-09T19:42:02.932Z,43.38
2023-05-09T19:45:08.414Z,43.12
2023-05-09T19:48:13.710Z,43.47
2023-05-09T19:51:20.880Z,44.04
2023-05-09T19:54:26.217Z,44.60
2023-05-09T19:57:31.817Z,45.26
2023-05-09T20:00:38.431Z,45.27
2023-05-09T20:03:43.576Z,45.74
2023-05-09T20:06:50.313Z,46.91
2023-05-09T20:09:57.961Z,46.97
2023-05-09T20:13:05.960Z,46.91
2023-05-09T20:16:12.895Z,46.58
2023-05-09T20:19:20.744Z,46.61
2023-05-09T20:22:25.560Z,47.56
2023-05-09T20:25:30.985Z,47.33
2023-05-09T20:28:36.235Z,47.52
2023-05-09T20:31:43.346Z,47.32
2023-05-09T20:34:50.042Z,47.76
2023-05-09T20:37:56.546Z,47.54
2023-05-09T20:41:02.918Z,48.06
2023-05-09T20:44:10.805Z,48.29
2023-05-09T20:47:16.299Z,48.92
2023-05-09T20:50:22.314Z,48.76
2023-05-09T20:53:27.661Z,48.86
2023-05-09T20:56:34.870Z,49.22
2023-05-09T20:59:41.083Z,49.01
2023-05-09T21:02:47.561Z,49.18
2023-05-09T21:05:54.110Z,49.35
2023-05-09T21:08:59.749Z,49.08
2023-05-09T21:12:04.634Z,49.15
2023-05-09T21:15:10.589Z,49.34
2023-05-09T21:18:15.939Z,49.07
2023-05-09T21:21:21.573Z,49.34
2023-05-09T21:24:26.873Z,49.96
2023-05-09T21:27:32.641Z,50.21
2023-05-09T21:30:38.695Z,50.67
2023-05-09T21:33:44.001Z,50.62
2023-05-09T21:36:48.913Z,51.66
2023-05-09T21:39:54.606Z,51.17
2023-05-09T21:43:01.804Z,50.54
2023-05-09T21:46:08.078Z,50.91
2023-05-09T21:49:14.966Z,50.91
2023-05-09T21:52:20.501Z,51.00
2023-05-09T21:55:26.007Z,50.75
2023-05-09T21:58:31.837Z,53.11
2023-05-09T22:01:38.194Z,53.05
2023-05-09T22:04:43.058Z,53.04
2023-05-09T22:07:41.895Z,53.77
2023-05-09T22:10:47.377Z,54.30
2023-05-09T22:13:53.093Z,55.06
2023-05-09T22:16:58.051Z,55.63
2023-05-09T22:20:03.632Z,57.38
2023-05-09T22:23:09.181Z,58.04
2023-05-09T22:26:14.640Z,59.23
2023-05-09T22:29:21.480Z,59.46
2023-05-09T22:32:28.456Z,58.55
2023-05-09T22:35:34.022Z,59.10
2023-05-09T22:38:40.085Z,59.31
2023-05-09T22:41:46.865Z,59.63
2023-05-09T22:44:52.824Z,59.47
2023-05-09T22:47:58.654Z,60.39
2023-05-09T22:51:04.075Z,60.65
2023-05-09T22:54:10.445Z,60.70
2023-05-09T22:57:16.683Z,60.86
2023-05-09T23:00:23.357Z,61.04
2023-05-09T23:03:30.259Z,61.25
2023-05-09T23:06:36.635Z,61.57
2023-05-09T23:09:41.835Z,62.07
2023-05-09T23:12:46.887Z,62.27
2023-05-09T23:15:52.361Z,62.90
2023-05-09T23:18:58.184Z,62.82
2023-05-09T23:22:05.685Z,62.45
2023-05-09T23:25:11.160Z,63.05
2023-05-09T23:28:16.138Z,63.44
2023-05-09T23:31:22.131Z,63.65
2023-05-09T23:34:27.046Z,63.69
2023-05-09T23:37:31.918Z,64.15
2023-05-09T23:40:37.536Z,64.58
2023-05-09T23:43:43.568Z,64.99
2023-05-09T23:46:49.051Z,65.04
2023-05-09T23:49:54.791Z,64.98
2023-05-09T23:53:00.265Z,65.14
2023-05-09T23:56:05.547Z,64.73
2023-05-09T23:59:04.308Z,64.39
